X  Sluiten METAR luchtvaart weer gegevens      EHKD De Kooy Airport
Temperatuur
6°C Temperatuur
1°C Dauwpunt
71% Vochtigheid



Wind
24 KM/U
15 MPH
7 M/S
13 KTS



50°
NO
Huidig weer

Geheel bewolkt Geheel bewolkt
Luchtdruk 1017.95 (hPa) - 30.06 (inHg)
Zicht 6 (mijl) - 9.7 (km)
Vliegveld
Vliegveld code EHKD

Locatie : De Kooy Airport
Afstand: 34 (km)

Metar:
EHKD 270025Z AUTO 05013KT 010V070 9999 OVC021 06/01 Q1018 WHT

Tijd: 27-02-2024 01:25 CET